首页
METAR-TAF:

METAR-TAF

机场 :

中途国际机场

芝加哥, 伊利诺伊州, 美国

纬度: 41-47-03N, 经度: 087-45-19W, 海拔: 188米

当前天气观测

该预报发布于26分钟前的02:53 UTC
风速6节,风向
温度 24°C
湿度 69%
气压 1015 hPa
能見度: 16.1公里
散云层高于4500英尺
阴天层高于14000英尺

METAR: KMDW 220253Z 35006KT 10SM SCT045 OVC140 24/18 A2997 RMK AO2 SLP141 T02440183 53025

时间: 22:19 (03:19 UTC)

预报

该预报发布于19分钟前的03:00 UTC
预报有效从22日的 03点(UTC)到 23日的 06点(UTC)
风速6节,风向
能見度: 10公里
散云层高于3500英尺
多云层高于15000英尺
从 22日的 1500点(UTC)
风速12节,风向东北
能見度: 10公里
散云层高于5000英尺

TAF: KMDW 220300Z 2203/2306 35006KT P6SM SCT035 BKN150 FM221500 05012KT P6SM SCT050

超过4000个机场的气象观测和天气预报(METAR&TAF报告)。

可查询的气象台以黄色和红色小点在地图上表示。

将鼠标移到小点上方,可查看气象台名称。

然后点击查看天气观测和预报。

如需切换地图:点击带黑十字的绿色按钮放大地图;点击带横线的绿色按钮缩小地图;或者点击绿色箭头查看邻近地区的地图。


METAR-TAF: